createdAt,value
2024-03-16T00:01:41.409Z,100.00
2024-03-16T00:04:09.765Z,100.00
2024-03-16T00:06:38.536Z,100.00
2024-03-16T00:09:09.438Z,100.00
2024-03-16T00:11:37.938Z,100.00
2024-03-16T00:14:06.746Z,100.00
2024-03-16T00:16:35.505Z,100.00
2024-03-16T00:19:04.995Z,100.00
2024-03-16T00:21:33.461Z,100.00
2024-03-16T00:24:01.701Z,100.00
2024-03-16T00:26:30.761Z,100.00
2024-03-16T00:28:59.658Z,100.00
2024-03-16T00:31:28.678Z,100.00
2024-03-16T00:33:58.552Z,100.00
2024-03-16T00:36:26.748Z,100.00
2024-03-16T00:38:55.764Z,100.00
2024-03-16T00:41:28.263Z,100.00
2024-03-16T00:43:56.830Z,100.00
2024-03-16T00:46:25.051Z,100.00
2024-03-16T00:48:53.434Z,100.00
2024-03-16T00:51:22.898Z,100.00
2024-03-16T00:53:51.426Z,100.00
2024-03-16T00:56:19.777Z,100.00
2024-03-16T00:58:49.425Z,100.00
2024-03-16T01:01:18.364Z,100.00
2024-03-16T01:03:46.702Z,100.00
2024-03-16T01:06:14.927Z,100.00
2024-03-16T01:08:43.145Z,100.00
2024-03-16T01:11:11.522Z,100.00
2024-03-16T01:13:39.993Z,100.00
2024-03-16T01:16:08.387Z,100.00
2024-03-16T01:18:36.696Z,100.00
2024-03-16T01:21:07.366Z,100.00
2024-03-16T01:23:38.445Z,100.00
2024-03-16T01:26:09.877Z,100.00
2024-03-16T01:28:38.115Z,100.00
2024-03-16T01:31:06.332Z,100.00
2024-03-16T01:33:34.630Z,100.00
2024-03-16T01:36:04.712Z,100.00
2024-03-16T01:38:33.113Z,100.00
2024-03-16T01:41:01.641Z,100.00
2024-03-16T01:43:29.999Z,100.00
2024-03-16T01:45:58.220Z,100.00
2024-03-16T01:48:26.835Z,100.00
2024-03-16T01:50:56.269Z,100.00
2024-03-16T01:53:24.649Z,100.00
2024-03-16T01:55:57.184Z,100.00
2024-03-16T01:58:25.352Z,100.00
2024-03-16T02:01:03.488Z,100.00
2024-03-16T02:03:31.780Z,100.00
2024-03-16T02:06:01.172Z,100.00
2024-03-16T02:08:29.541Z,100.00
2024-03-16T02:10:58.605Z,100.00
2024-03-16T02:13:30.043Z,100.00
2024-03-16T02:15:58.277Z,100.00
2024-03-16T02:18:26.803Z,100.00
2024-03-16T02:20:55.091Z,100.00
2024-03-16T02:23:23.435Z,100.00
2024-03-16T02:25:53.563Z,100.00
2024-03-16T02:28:25.328Z,100.00
2024-03-16T02:30:53.663Z,100.00
2024-03-16T02:33:21.968Z,100.00
2024-03-16T02:35:50.136Z,100.00
2024-03-16T02:38:21.204Z,100.00
2024-03-16T02:40:49.597Z,100.00
2024-03-16T02:43:20.526Z,100.00
2024-03-16T02:45:48.820Z,100.00
2024-03-16T02:48:17.406Z,100.00
2024-03-16T02:50:51.389Z,100.00
2024-03-16T02:53:19.805Z,100.00
2024-03-16T02:55:50.147Z,100.00
2024-03-16T02:58:18.470Z,100.00
2024-03-16T03:00:47.243Z,100.00
2024-03-16T03:03:15.535Z,100.00
2024-03-16T03:05:47.340Z,100.00
2024-03-16T03:08:15.652Z,100.00
2024-03-16T03:10:44.091Z,100.00
2024-03-16T03:13:12.313Z,100.00
2024-03-16T03:15:40.784Z,100.00
2024-03-16T03:18:09.115Z,100.00
2024-03-16T03:20:37.466Z,100.00
2024-03-16T03:23:06.828Z,100.00
2024-03-16T03:25:36.601Z,100.00
2024-03-16T03:28:05.813Z,100.00
2024-03-16T03:30:37.427Z,100.00
2024-03-16T03:33:05.955Z,100.00
2024-03-16T03:35:36.010Z,100.00
2024-03-16T03:38:08.604Z,100.00
2024-03-16T03:40:36.973Z,100.00
2024-03-16T03:43:06.977Z,100.00
2024-03-16T03:45:51.439Z,100.00
2024-03-16T03:48:42.380Z,100.00
2024-03-16T03:51:10.910Z,100.00
2024-03-16T03:53:39.175Z,100.00
2024-03-16T03:56:07.644Z,100.00
2024-03-16T03:58:35.884Z,100.00
2024-03-16T04:01:04.185Z,100.00
2024-03-16T04:03:32.732Z,100.00
2024-03-16T04:06:02.790Z,100.00
2024-03-16T04:08:31.082Z,100.00
2024-03-16T04:10:59.348Z,100.00
2024-03-16T04:13:27.488Z,100.00
2024-03-16T04:15:56.783Z,100.00
2024-03-16T04:18:25.277Z,100.00
2024-03-16T04:20:53.984Z,100.00
2024-03-16T04:23:22.247Z,100.00
2024-03-16T04:25:51.732Z,100.00
2024-03-16T04:28:20.810Z,100.00
2024-03-16T04:30:48.999Z,100.00
2024-03-16T04:33:17.565Z,100.00
2024-03-16T04:35:49.504Z,100.00
2024-03-16T04:38:18.813Z,100.00
2024-03-16T04:40:47.061Z,100.00
2024-03-16T04:43:15.517Z,100.00
2024-03-16T04:45:45.889Z,100.00
2024-03-16T04:48:14.748Z,100.00
2024-03-16T04:50:43.314Z,100.00
2024-03-16T04:53:12.831Z,100.00
2024-03-16T04:55:41.536Z,100.00
2024-03-16T04:58:09.862Z,100.00
2024-03-16T05:00:40.380Z,100.00
2024-03-16T05:03:11.042Z,100.00
2024-03-16T05:05:41.990Z,100.00
2024-03-16T05:08:10.291Z,100.00
2024-03-16T05:10:41.127Z,100.00
2024-03-16T05:13:09.422Z,100.00
2024-03-16T05:15:37.731Z,100.00
2024-03-16T05:18:06.441Z,100.00
2024-03-16T05:20:36.388Z,100.00
2024-03-16T05:23:05.854Z,100.00
2024-03-16T05:25:34.035Z,100.00
2024-03-16T05:28:02.209Z,100.00
2024-03-16T05:30:31.030Z,100.00
2024-03-16T05:32:59.290Z,100.00
2024-03-16T05:35:30.033Z,100.00
2024-03-16T05:37:58.247Z,100.00
2024-03-16T05:40:26.660Z,100.00
2024-03-16T05:42:54.897Z,100.00
2024-03-16T05:45:23.043Z,100.00
2024-03-16T05:47:54.291Z,100.00
2024-03-16T05:50:22.455Z,100.00
2024-03-16T05:52:50.984Z,100.00
2024-03-16T05:55:19.162Z,100.00
2024-03-16T05:57:50.416Z,100.00
2024-03-16T06:00:21.331Z,100.00
2024-03-16T06:02:51.488Z,99.96
2024-03-16T06:05:19.711Z,99.58
2024-03-16T06:07:47.972Z,99.67
2024-03-16T06:10:16.350Z,99.42
2024-03-16T06:12:45.075Z,99.67
2024-03-16T06:15:13.354Z,99.40
2024-03-16T06:17:47.989Z,99.29
2024-03-16T06:20:16.675Z,99.90
2024-03-16T06:22:48.900Z,99.06
2024-03-16T06:25:18.452Z,99.28
2024-03-16T06:27:51.190Z,99.19
2024-03-16T06:30:20.729Z,98.89
2024-03-16T06:33:07.118Z,98.43
2024-03-16T06:35:35.893Z,98.78
2024-03-16T06:38:04.670Z,98.36
2024-03-16T06:40:37.918Z,97.93
2024-03-16T06:43:06.551Z,98.02
2024-03-16T06:45:34.990Z,97.71
2024-03-16T06:48:06.580Z,97.33
2024-03-16T06:50:36.762Z,97.77
2024-03-16T06:53:07.640Z,97.17
2024-03-16T06:55:36.163Z,96.98
2024-03-16T06:58:06.110Z,96.14
2024-03-16T07:00:34.465Z,95.98
2024-03-16T07:03:04.900Z,94.91
2024-03-16T07:05:33.118Z,94.16
2024-03-16T07:08:08.479Z,93.64
2024-03-16T07:10:36.638Z,93.61
2024-03-16T07:13:07.545Z,92.96
2024-03-16T07:15:35.892Z,92.81
2024-03-16T07:18:04.854Z,92.39
2024-03-16T07:20:33.056Z,91.32
2024-03-16T07:23:01.297Z,91.03
2024-03-16T07:25:29.613Z,90.57
2024-03-16T07:28:00.997Z,89.84
2024-03-16T07:30:29.416Z,89.64
2024-03-16T07:32:58.206Z,89.16
2024-03-16T07:35:26.627Z,89.62
2024-03-16T07:37:57.348Z,88.54
2024-03-16T07:40:25.641Z,88.67
2024-03-16T07:42:53.972Z,88.42
2024-03-16T07:45:22.937Z,88.98
2024-03-16T07:47:54.456Z,88.36
2024-03-16T07:50:22.681Z,88.60
2024-03-16T07:52:54.285Z,88.64
2024-03-16T07:55:22.550Z,88.22
2024-03-16T07:57:51.118Z,87.44
2024-03-16T08:00:19.545Z,87.03
2024-03-16T08:02:47.707Z,87.18
2024-03-16T08:05:18.611Z,87.37
2024-03-16T08:07:48.921Z,87.25
2024-03-16T08:10:17.483Z,87.56
2024-03-16T08:12:45.897Z,90.48
2024-03-16T08:15:14.441Z,93.08
2024-03-16T08:17:42.693Z,93.92
2024-03-16T08:20:16.252Z,93.72
2024-03-16T08:22:45.894Z,94.37
2024-03-16T08:25:14.246Z,94.26
2024-03-16T08:27:42.716Z,94.80
2024-03-16T08:30:11.418Z,95.13
2024-03-16T08:32:39.630Z,95.04
2024-03-16T08:35:08.578Z,94.26
2024-03-16T08:37:36.828Z,93.66
2024-03-16T08:40:14.525Z,93.23
2024-03-16T08:42:42.910Z,92.90
2024-03-16T08:45:12.128Z,92.24
2024-03-16T08:47:42.866Z,92.44
2024-03-16T08:50:14.233Z,92.18
2024-03-16T08:52:44.272Z,90.90
2024-03-16T08:55:14.800Z,91.38
2024-03-16T08:57:43.454Z,89.52
2024-03-16T09:00:15.078Z,89.20
2024-03-16T09:04:20.550Z,90.29
2024-03-16T09:06:48.578Z,90.43
2024-03-16T09:09:17.676Z,89.66
2024-03-16T09:11:46.843Z,90.78
2024-03-16T09:14:15.057Z,90.65
2024-03-16T09:16:42.901Z,91.68
2024-03-16T09:19:11.180Z,92.24
2024-03-16T09:21:39.118Z,92.46
2024-03-16T09:24:07.410Z,92.16
2024-03-16T09:26:35.703Z,91.28
2024-03-16T09:29:07.170Z,90.67
2024-03-16T09:31:35.109Z,87.28
2024-03-16T09:34:04.939Z,86.21
2024-03-16T09:36:33.019Z,84.95
2024-03-16T09:39:01.245Z,84.15
2024-03-16T09:41:30.431Z,83.23
